Rothesay, Canada
Current Conditions -  °F | °C
As of 6:00 PM on Monday 20 Oct 2014 (Local Time) from CYSJ Reporting Station
Few Clouds Few Clouds  
Wind Chill: 40°   Ceiling: Unl
Heat Index: 45°   Visibility: 15mi
Dew Point: 28°   Wind: 9mph
Humidity: 53%   Direction: 260°W
Pressure: 29.87"   Gusts: NA
Location:  45.39°N, 65.99°W
Report Text: CYSJ 202100Z 26008KT 15SM FEW040 FEW260 07/M02 A2987 RMK SC1CI1 SLP117
Loading
Personal Weather Stations






























Interactive Weather Map
Tropical Storm Tracking
New forecast layout! Learn more

10-Day Weather Forecast

Advertisements
Track Severe Weather on mobile